createdAt,value
2023-05-22T00:00:09.209Z,8.55
2023-05-22T00:03:14.194Z,8.02
2023-05-22T00:06:15.901Z,7.80
2023-05-22T00:09:17.770Z,7.90
2023-05-22T00:12:19.378Z,7.88
2023-05-22T00:15:20.923Z,8.15
2023-05-22T00:18:22.523Z,7.82
2023-05-22T00:21:24.854Z,7.55
2023-05-22T00:24:26.392Z,8.02
2023-05-22T00:27:28.291Z,7.70
2023-05-22T00:30:29.767Z,7.82
2023-05-22T00:33:31.363Z,7.22
2023-05-22T00:36:33.012Z,7.40
2023-05-22T00:39:34.830Z,7.15
2023-05-22T00:42:36.463Z,7.03
2023-05-22T00:45:37.942Z,7.03
2023-05-22T00:48:39.458Z,7.28
2023-05-22T00:51:41.086Z,6.95
2023-05-22T00:54:43.232Z,7.35
2023-05-22T00:57:45.876Z,7.13
2023-05-22T01:00:48.112Z,6.97
2023-05-22T01:03:50.881Z,6.68
2023-05-22T01:06:53.728Z,7.47
2023-05-22T01:09:56.162Z,7.63
2023-05-22T01:13:06.970Z,7.15
2023-05-22T01:16:18.773Z,7.47
2023-05-22T01:19:54.067Z,7.18
2023-05-22T01:23:05.865Z,7.25
2023-05-22T01:26:39.386Z,7.05
2023-05-22T01:29:54.636Z,6.78
2023-05-22T01:32:58.131Z,6.80
2023-05-22T01:36:01.979Z,6.25
2023-05-22T01:39:06.290Z,6.30
2023-05-22T01:42:08.219Z,6.50
2023-05-22T01:45:11.753Z,6.95
2023-05-22T01:48:13.694Z,6.47
2023-05-22T01:51:20.390Z,6.50
2023-05-22T01:54:24.581Z,6.13
2023-05-22T01:57:38.079Z,6.50
2023-05-22T12:52:23.036Z,5.78
2023-05-22T12:55:24.530Z,5.90
2023-05-22T12:58:26.071Z,6.07
2023-05-22T13:01:27.750Z,5.75
2023-05-22T13:04:29.795Z,5.55
2023-05-22T13:07:31.457Z,6.00
2023-05-22T13:10:32.978Z,5.38
2023-05-22T13:13:34.501Z,6.10
2023-05-22T13:16:36.688Z,5.28
2023-05-22T13:19:38.452Z,5.60
2023-05-22T13:22:41.661Z,5.30
2023-05-22T13:25:43.168Z,5.30
2023-05-22T13:28:44.652Z,5.63
2023-05-22T13:31:46.172Z,5.50
2023-05-22T13:34:47.943Z,5.40
2023-05-22T13:37:49.703Z,5.35
2023-05-22T13:40:52.007Z,5.38
2023-05-22T13:43:53.554Z,5.18
2023-05-22T13:46:55.087Z,5.30
2023-05-22T13:49:56.694Z,5.75
2023-05-22T13:52:58.248Z,5.57
2023-05-22T13:55:59.977Z,5.75
2023-05-22T13:59:01.614Z,5.65
2023-05-22T14:02:03.579Z,5.32
2023-05-22T14:05:05.602Z,5.47
2023-05-22T14:08:07.147Z,4.85
2023-05-22T14:11:08.880Z,5.32
2023-05-22T14:14:10.581Z,5.07
2023-05-22T14:17:12.116Z,5.10
2023-05-22T17:37:49.504Z,4.38
2023-05-22T17:40:52.129Z,4.88
2023-05-22T17:43:55.719Z,4.82
2023-05-22T17:46:57.444Z,4.85
2023-05-22T17:49:59.029Z,5.22
2023-05-22T17:53:00.653Z,5.07
2023-05-22T17:56:02.271Z,4.68
2023-05-22T17:59:07.054Z,4.50
2023-05-22T18:02:09.429Z,4.47
2023-05-22T18:05:11.082Z,4.93
2023-05-22T18:08:12.671Z,5.05
2023-05-22T18:11:14.234Z,5.13
2023-05-22T18:14:15.775Z,5.30
2023-05-22T18:17:17.302Z,4.85
2023-05-22T18:20:19.965Z,4.70
2023-05-22T18:23:21.680Z,4.50
2023-05-22T18:26:23.183Z,4.65
2023-05-22T18:29:24.718Z,5.05
2023-05-22T18:32:26.233Z,4.47
2023-05-22T18:35:27.717Z,5.10
2023-05-22T18:38:29.912Z,4.55
2023-05-22T18:41:31.437Z,4.28
2023-05-22T18:44:33.010Z,4.43
2023-05-22T18:47:34.639Z,4.68
2023-05-22T18:50:36.246Z,4.80
2023-05-22T18:53:37.751Z,4.80
2023-05-22T18:56:39.377Z,4.20
2023-05-22T18:59:42.164Z,4.75
2023-05-22T19:02:43.897Z,4.88
2023-05-22T19:05:45.771Z,4.47
2023-05-22T19:08:47.276Z,4.63
2023-05-22T19:11:48.825Z,4.70
2023-05-22T19:14:50.559Z,4.40
2023-05-22T19:17:52.341Z,4.55
2023-05-22T19:20:53.994Z,4.28
2023-05-22T19:23:55.622Z,4.80
2023-05-22T19:26:57.603Z,4.50
2023-05-22T19:29:59.163Z,4.43
2023-05-22T19:33:00.767Z,4.40
2023-05-22T19:36:02.480Z,4.05
2023-05-22T19:39:04.074Z,4.40
2023-05-22T19:42:08.063Z,4.40
2023-05-22T19:45:09.955Z,4.18
2023-05-22T19:48:11.720Z,4.35
2023-05-22T19:51:13.412Z,4.10
2023-05-22T19:54:15.026Z,4.30
2023-05-22T19:57:16.535Z,4.07
2023-05-22T20:00:18.552Z,4.10
2023-05-22T20:03:20.878Z,4.07
2023-05-22T20:06:22.675Z,3.95
2023-05-22T20:09:24.511Z,4.32
2023-05-22T20:12:26.089Z,3.70
2023-05-22T20:15:27.682Z,3.80
2023-05-22T20:18:31.735Z,4.10
2023-05-22T20:21:33.312Z,4.28
2023-05-22T20:24:35.520Z,4.38
2023-05-22T20:27:37.214Z,4.13
2023-05-22T20:30:38.781Z,4.57
2023-05-22T20:33:41.263Z,4.57
2023-05-22T20:36:44.789Z,4.47
2023-05-22T20:39:46.339Z,4.20
2023-05-22T20:42:47.925Z,4.47
2023-05-22T20:45:50.313Z,4.50
2023-05-22T20:48:52.089Z,4.70
2023-05-22T20:51:54.291Z,4.93
2023-05-22T20:54:58.723Z,4.38
2023-05-22T20:58:00.654Z,4.78
2023-05-22T21:01:02.361Z,4.95
2023-05-22T21:04:03.976Z,4.75
2023-05-22T21:07:05.561Z,4.85
2023-05-22T21:10:07.707Z,4.60
2023-05-22T21:13:09.323Z,4.55
2023-05-22T21:16:10.866Z,4.50
2023-05-22T21:19:12.464Z,4.70
2023-05-22T21:22:14.064Z,4.45
2023-05-22T21:25:15.627Z,5.00
2023-05-22T21:28:17.145Z,5.00
2023-05-22T21:31:18.758Z,4.80
2023-05-22T21:34:20.305Z,5.00
2023-05-22T21:37:21.853Z,5.28
2023-05-22T21:40:23.433Z,4.70
2023-05-22T21:43:24.946Z,4.60
2023-05-22T21:46:26.583Z,5.05
2023-05-22T21:49:28.183Z,4.70
2023-05-22T21:52:29.736Z,5.18
2023-05-22T21:55:31.305Z,5.25
